Aviation Digital Data Service (ADDS)

Output produced by METARs form (2206 UTC 23 April 2019)
found at http://www.aviationweather.gov/metar/data/
 
TAF RJAA 231706Z 2318/2500 18010KT 9999 FEW010 BKN020 
     TEMPO 2412/2418 4000 -SHRA BR FEW005 BKN008 
     TEMPO 2418/2500 3000 SHRA BR FEW003 BKN005